createdAt,value
2023-05-21T00:00:26.116Z,270
2023-05-21T00:02:37.754Z,269
2023-05-21T00:04:52.181Z,270
2023-05-21T00:07:04.851Z,270
2023-05-21T00:09:20.018Z,270
2023-05-21T00:11:37.564Z,270
2023-05-21T00:13:47.983Z,269
2023-05-21T00:15:58.796Z,269
2023-05-21T00:18:11.111Z,270
2023-05-21T00:20:22.610Z,270
2023-05-21T00:22:41.759Z,270
2023-05-21T00:24:56.868Z,270
2023-05-21T00:27:08.136Z,270
2023-05-21T00:29:18.985Z,270
2023-05-21T00:31:26.979Z,270
2023-05-21T00:33:37.483Z,270
2023-05-21T00:35:51.186Z,269
2023-05-21T00:38:04.236Z,268
2023-05-21T00:40:18.325Z,270
2023-05-21T00:42:28.742Z,270
2023-05-21T00:44:40.344Z,268
2023-05-21T00:46:57.504Z,270
2023-05-21T00:49:08.630Z,270
2023-05-21T00:51:30.124Z,269
2023-05-21T00:53:40.300Z,270
2023-05-21T00:55:47.806Z,268
2023-05-21T00:57:55.420Z,268
2023-05-21T01:00:09.351Z,268
2023-05-21T01:02:18.903Z,268
2023-05-21T01:04:31.271Z,268
2023-05-21T01:06:41.759Z,268
2023-05-21T01:08:51.965Z,268
2023-05-21T01:11:00.509Z,268
2023-05-21T01:13:15.694Z,268
2023-05-21T01:15:22.966Z,268
2023-05-21T01:17:36.177Z,268
2023-05-21T01:19:44.422Z,268
2023-05-21T01:21:55.166Z,268
2023-05-21T01:24:07.452Z,268
2023-05-21T01:26:17.507Z,268
2023-05-21T01:28:29.926Z,268
2023-05-21T01:30:45.946Z,268
2023-05-21T01:32:55.808Z,268
2023-05-21T01:35:03.949Z,268
2023-05-21T01:37:12.527Z,268
2023-05-21T01:39:22.907Z,267
2023-05-21T01:41:34.518Z,267
2023-05-21T01:43:51.273Z,268
2023-05-21T01:46:01.179Z,267
2023-05-21T01:48:22.152Z,268
2023-05-21T01:50:38.631Z,267
2023-05-21T01:52:51.547Z,268
2023-05-21T01:55:11.847Z,268
2023-05-21T01:57:23.353Z,269
2023-05-21T01:59:33.405Z,270
2023-05-21T02:01:49.744Z,268
2023-05-21T02:04:07.189Z,268
2023-05-21T02:06:38.016Z,268
2023-05-21T02:11:44.542Z,268
2023-05-21T02:13:58.322Z,268
2023-05-21T02:16:20.087Z,268
2023-05-21T02:18:54.412Z,268
2023-05-21T02:23:50.702Z,267
2023-05-21T02:26:22.320Z,268
2023-05-21T02:28:43.128Z,268
2023-05-21T02:30:59.630Z,268
2023-05-21T02:33:21.768Z,269
2023-05-21T02:35:48.902Z,268
2023-05-21T02:38:27.191Z,268
2023-05-21T02:40:50.331Z,270
2023-05-21T02:43:03.542Z,268
2023-05-21T02:45:29.073Z,268
2023-05-21T02:48:07.922Z,268
2023-05-21T02:50:27.583Z,270
2023-05-21T02:52:58.385Z,270
2023-05-21T03:24:09.604Z,268
2023-05-21T03:36:06.425Z,267
2023-05-21T03:41:24.379Z,267
2023-05-21T03:44:04.677Z,267
2023-05-21T03:48:47.613Z,267
2023-05-21T03:51:01.356Z,267
2023-05-21T03:53:27.938Z,267
2023-05-21T03:55:44.525Z,267
2023-05-21T03:58:09.286Z,267
2023-05-21T04:00:55.113Z,267
2023-05-21T04:03:12.173Z,267
2023-05-21T04:05:26.664Z,267
2023-05-21T04:07:40.038Z,267
2023-05-21T04:10:12.495Z,267
2023-05-21T04:12:31.504Z,267
2023-05-21T04:14:52.544Z,267
2023-05-21T04:17:06.831Z,267
2023-05-21T04:19:32.169Z,267
2023-05-21T04:21:43.953Z,267
2023-05-21T04:24:03.994Z,267
2023-05-21T04:28:52.191Z,267
2023-05-21T04:33:35.265Z,267
2023-05-21T04:35:49.156Z,268
2023-05-21T04:38:11.859Z,266
2023-05-21T04:40:23.656Z,267
2023-05-21T04:42:36.894Z,267
2023-05-21T04:44:47.916Z,267
2023-05-21T04:46:56.045Z,267
2023-05-21T04:49:15.751Z,266
2023-05-21T04:51:37.299Z,266
2023-05-21T04:53:56.483Z,266
2023-05-21T04:56:13.148Z,266
2023-05-21T05:01:07.342Z,265
2023-05-21T05:03:20.058Z,266
2023-05-21T05:05:45.215Z,266
2023-05-21T05:07:59.637Z,268
2023-05-21T05:10:28.853Z,268
2023-05-21T05:12:52.919Z,267
2023-05-21T05:15:05.661Z,268
2023-05-21T05:17:24.448Z,268
2023-05-21T05:19:50.648Z,268
2023-05-21T05:22:34.591Z,268
2023-05-21T05:25:27.845Z,267
2023-05-21T06:41:49.866Z,268
2023-05-21T07:15:47.276Z,267
2023-05-21T07:28:57.765Z,268
2023-05-21T07:34:38.992Z,267
2023-05-21T07:37:23.579Z,268
2023-05-21T07:39:39.698Z,268
2023-05-21T07:42:01.525Z,268
2023-05-21T07:44:09.454Z,268
2023-05-21T07:46:32.008Z,268
2023-05-21T07:48:51.449Z,268
2023-05-21T07:51:10.714Z,268
2023-05-21T07:53:20.196Z,268
2023-05-21T07:55:26.950Z,268
2023-05-21T07:57:37.783Z,268
2023-05-21T07:59:47.849Z,268
2023-05-21T08:01:56.006Z,268
2023-05-21T08:04:05.478Z,267
2023-05-21T08:06:29.389Z,268
2023-05-21T08:08:50.557Z,268
2023-05-21T08:10:58.183Z,268
2023-05-21T08:13:05.998Z,268
2023-05-21T08:15:17.894Z,268
2023-05-21T08:17:26.522Z,268
2023-05-21T08:19:38.917Z,268
2023-05-21T08:21:50.896Z,268
2023-05-21T08:24:05.773Z,268
2023-05-21T08:26:14.484Z,268
2023-05-21T08:28:21.844Z,268
2023-05-21T08:30:50.194Z,268
2023-05-21T08:32:59.661Z,270
2023-05-21T08:35:11.161Z,268
2023-05-21T08:37:20.212Z,268
2023-05-21T08:39:27.130Z,268
2023-05-21T08:43:59.335Z,270
2023-05-21T08:46:11.810Z,270
2023-05-21T08:48:20.906Z,270
2023-05-21T08:50:30.177Z,270
2023-05-21T08:52:46.487Z,268
2023-05-21T08:54:55.118Z,268
2023-05-21T08:57:03.713Z,270
2023-05-21T08:59:25.570Z,270
2023-05-21T09:01:34.655Z,270
2023-05-21T09:03:42.571Z,270
2023-05-21T09:06:07.851Z,271
2023-05-21T09:08:16.968Z,272
2023-05-21T09:10:24.810Z,271
2023-05-21T09:12:31.758Z,272
2023-05-21T09:14:39.714Z,272
2023-05-21T09:16:48.471Z,271
2023-05-21T09:18:58.231Z,271
2023-05-21T09:21:10.999Z,270
2023-05-21T09:23:19.213Z,270
2023-05-21T09:25:27.385Z,271
2023-05-21T09:27:35.683Z,271
2023-05-21T09:29:44.242Z,272
2023-05-21T09:31:55.556Z,272
2023-05-21T09:34:03.738Z,272
2023-05-21T09:36:12.929Z,271
2023-05-21T09:38:20.818Z,271
2023-05-21T09:40:29.612Z,270
2023-05-21T09:42:41.566Z,270
2023-05-21T09:44:53.428Z,270
2023-05-21T09:49:33.074Z,270
2023-05-21T09:51:40.956Z,270
2023-05-21T09:53:49.252Z,270
2023-05-21T09:55:57.470Z,268
2023-05-21T09:58:07.580Z,269
2023-05-21T10:00:16.532Z,270
2023-05-21T10:02:25.009Z,269
2023-05-21T10:04:33.954Z,270
2023-05-21T10:06:42.780Z,268
2023-05-21T10:08:51.442Z,270
2023-05-21T10:10:59.257Z,270
2023-05-21T10:13:17.514Z,270
2023-05-21T10:15:26.611Z,268
2023-05-21T10:17:35.126Z,268
2023-05-21T10:19:44.604Z,269
2023-05-21T10:21:55.864Z,269
2023-05-21T10:24:05.806Z,271
2023-05-21T10:26:13.949Z,270
2023-05-21T10:28:23.685Z,270
2023-05-21T10:30:32.452Z,270
2023-05-21T10:32:41.631Z,270
2023-05-21T10:34:50.147Z,270
2023-05-21T10:36:57.918Z,269
2023-05-21T10:39:09.069Z,270
2023-05-21T10:41:24.854Z,270
2023-05-21T10:43:33.816Z,270
2023-05-21T10:45:42.711Z,270
2023-05-21T10:47:54.419Z,271
2023-05-21T10:50:02.409Z,270
2023-05-21T10:52:10.706Z,270
2023-05-21T10:54:18.869Z,270
2023-05-21T10:56:26.513Z,270
2023-05-21T10:58:34.608Z,271
2023-05-21T11:00:43.217Z,270
2023-05-21T11:02:51.727Z,271
2023-05-21T11:05:00.192Z,271
2023-05-21T11:07:07.232Z,271
2023-05-21T11:09:14.708Z,270
2023-05-21T11:11:22.860Z,271
2023-05-21T11:13:34.622Z,271
2023-05-21T11:15:43.562Z,271
2023-05-21T11:17:52.759Z,270
2023-05-21T11:20:04.640Z,271
2023-05-21T11:22:12.889Z,270
2023-05-21T11:24:24.422Z,271
2023-05-21T11:26:34.793Z,271
2023-05-21T11:28:43.602Z,270
2023-05-21T11:30:52.600Z,271
2023-05-21T11:33:03.006Z,270
2023-05-21T11:35:11.426Z,270
2023-05-21T11:37:20.815Z,270
2023-05-21T11:39:29.593Z,270
2023-05-21T11:41:36.909Z,270
2023-05-21T11:43:44.491Z,272
2023-05-21T11:45:53.380Z,271
2023-05-21T11:48:02.198Z,271
2023-05-21T11:50:10.758Z,270
2023-05-21T11:52:19.722Z,269
2023-05-21T11:54:28.703Z,270
2023-05-21T11:56:36.970Z,271
2023-05-21T11:58:45.150Z,271
2023-05-21T12:00:53.573Z,270
2023-05-21T12:03:02.044Z,271
2023-05-21T12:05:11.834Z,271
2023-05-21T12:07:20.787Z,271
2023-05-21T12:09:29.567Z,270
2023-05-21T12:11:37.378Z,271
2023-05-21T12:13:46.036Z,270
2023-05-21T12:15:54.492Z,271
2023-05-21T12:18:02.987Z,270
2023-05-21T12:20:11.818Z,270
2023-05-21T12:22:20.422Z,271
2023-05-21T12:24:28.917Z,271
2023-05-21T12:26:37.373Z,271
2023-05-21T12:28:45.378Z,270
2023-05-21T12:30:53.684Z,271
2023-05-21T12:33:01.020Z,272
2023-05-21T12:35:09.368Z,270
2023-05-21T12:37:18.541Z,271
2023-05-21T12:39:29.848Z,270
2023-05-21T12:41:37.878Z,270
2023-05-21T12:43:46.473Z,272
2023-05-21T12:45:54.961Z,271
2023-05-21T12:48:03.559Z,271
2023-05-21T12:50:12.063Z,268
2023-05-21T12:52:20.817Z,267
2023-05-21T12:54:32.227Z,264
2023-05-21T12:56:43.103Z,267
2023-05-21T12:58:52.483Z,266
2023-05-21T13:01:03.067Z,267
2023-05-21T13:03:12.474Z,267
2023-05-21T13:05:21.038Z,267
2023-05-21T13:07:30.250Z,267
2023-05-21T13:09:39.206Z,267
2023-05-21T13:11:47.514Z,266
2023-05-21T13:13:58.587Z,269
2023-05-21T13:16:09.533Z,269
2023-05-21T13:18:18.273Z,270
2023-05-21T13:20:27.332Z,268
2023-05-21T13:22:36.316Z,268
2023-05-21T13:24:44.758Z,268
2023-05-21T13:26:54.387Z,267
2023-05-21T13:29:03.116Z,267
2023-05-21T13:31:12.150Z,266
2023-05-21T13:33:22.692Z,266
2023-05-21T13:35:32.191Z,266
2023-05-21T13:37:40.896Z,266
2023-05-21T13:39:51.342Z,267
2023-05-21T13:42:00.796Z,267
2023-05-21T13:44:09.169Z,267
2023-05-21T13:46:18.261Z,266
2023-05-21T13:48:31.435Z,267
2023-05-21T13:50:40.685Z,267
2023-05-21T13:52:48.573Z,267
2023-05-21T13:54:57.031Z,267
2023-05-21T13:57:06.217Z,266
2023-05-21T13:59:14.626Z,267
2023-05-21T14:01:21.643Z,268
2023-05-21T14:03:29.902Z,268
2023-05-21T14:05:39.042Z,268
2023-05-21T14:07:47.343Z,267
2023-05-21T14:10:01.224Z,267
2023-05-21T14:12:10.360Z,268
2023-05-21T14:14:18.818Z,268
2023-05-21T14:16:30.533Z,268
2023-05-21T14:18:39.354Z,268
2023-05-21T14:20:48.280Z,268
2023-05-21T14:22:57.055Z,267
2023-05-21T14:25:05.278Z,268
2023-05-21T14:27:19.209Z,269
2023-05-21T14:29:27.924Z,267
2023-05-21T14:31:37.818Z,270
2023-05-21T14:33:46.279Z,270
2023-05-21T14:35:55.991Z,267
2023-05-21T14:38:04.993Z,269
2023-05-21T14:40:14.896Z,271
2023-05-21T14:42:23.228Z,272
2023-05-21T14:44:32.962Z,268
2023-05-21T14:46:41.624Z,270
2023-05-21T14:48:49.703Z,270
2023-05-21T14:51:03.142Z,271
2023-05-21T14:53:14.578Z,272
2023-05-21T14:55:22.736Z,271
2023-05-21T14:57:34.578Z,270
2023-05-21T14:59:43.885Z,271
2023-05-21T15:01:53.214Z,272
2023-05-21T15:04:04.455Z,272
2023-05-21T15:06:17.433Z,271
2023-05-21T15:08:28.512Z,270
2023-05-21T15:10:36.869Z,271
2023-05-21T15:12:49.336Z,270
2023-05-21T15:14:58.913Z,270
2023-05-21T15:17:08.644Z,270
2023-05-21T15:19:18.103Z,270
2023-05-21T15:21:31.710Z,269
2023-05-21T15:23:43.649Z,270
2023-05-21T15:25:54.695Z,268
2023-05-21T15:28:06.861Z,268
2023-05-21T15:30:15.648Z,267
2023-05-21T15:32:25.800Z,268
2023-05-21T15:34:42.139Z,267
2023-05-21T15:37:14.459Z,267
2023-05-21T15:39:24.418Z,267
2023-05-21T15:41:36.165Z,268
2023-05-21T15:43:45.075Z,267
2023-05-21T15:45:58.527Z,267
2023-05-21T15:48:07.669Z,267
2023-05-21T15:50:17.480Z,267
2023-05-21T15:52:26.337Z,267
2023-05-21T15:54:34.962Z,267
2023-05-21T15:56:44.172Z,267
2023-05-21T15:59:00.310Z,268
2023-05-21T16:01:09.241Z,268
2023-05-21T16:03:20.943Z,268
2023-05-21T16:05:30.285Z,268
2023-05-21T16:07:41.318Z,268
2023-05-21T16:09:49.962Z,267
2023-05-21T16:11:58.099Z,267
2023-05-21T16:14:06.166Z,267
2023-05-21T16:16:14.157Z,266
2023-05-21T16:18:23.416Z,267
2023-05-21T16:20:32.203Z,267
2023-05-21T16:22:41.970Z,267
2023-05-21T16:24:50.562Z,268
2023-05-21T16:26:59.675Z,267
2023-05-21T16:29:07.789Z,267
2023-05-21T16:31:16.030Z,267
2023-05-21T16:33:25.033Z,267
2023-05-21T16:35:33.375Z,266
2023-05-21T16:37:42.757Z,267
2023-05-21T16:39:51.606Z,267
2023-05-21T16:42:00.451Z,267
2023-05-21T16:44:09.062Z,267
2023-05-21T16:46:19.103Z,267
2023-05-21T16:48:27.386Z,267
2023-05-21T16:50:36.150Z,267
2023-05-21T16:52:44.869Z,267
2023-05-21T16:54:54.188Z,267
2023-05-21T16:57:03.319Z,266
2023-05-21T16:59:11.975Z,267
2023-05-21T17:01:21.002Z,267
2023-05-21T17:03:32.800Z,267
2023-05-21T17:05:42.383Z,267
2023-05-21T17:07:52.599Z,266
2023-05-21T17:10:00.827Z,267
2023-05-21T17:12:23.152Z,267
2023-05-21T17:14:41.448Z,267
2023-05-21T17:16:50.082Z,267
2023-05-21T17:18:58.209Z,267
2023-05-21T17:21:06.507Z,267
2023-05-21T17:23:18.802Z,267
2023-05-21T17:25:27.437Z,267
2023-05-21T17:27:41.248Z,267
2023-05-21T17:29:49.349Z,267
2023-05-21T17:31:59.144Z,267
2023-05-21T17:34:09.338Z,267
2023-05-21T17:36:18.018Z,267
2023-05-21T17:38:26.494Z,267
2023-05-21T17:40:34.423Z,267
2023-05-21T17:42:43.857Z,267
2023-05-21T17:44:52.412Z,266
2023-05-21T17:47:05.471Z,267
2023-05-21T17:49:14.096Z,266
2023-05-21T17:51:21.826Z,267
2023-05-21T17:53:30.202Z,267
2023-05-21T17:55:39.348Z,267
2023-05-21T17:57:47.875Z,267
2023-05-21T17:59:56.731Z,267
2023-05-21T18:02:04.495Z,267
2023-05-21T18:04:12.642Z,266
2023-05-21T18:06:21.181Z,267
2023-05-21T18:08:30.661Z,267
2023-05-21T18:10:38.705Z,266
2023-05-21T18:12:48.322Z,267
2023-05-21T18:14:56.305Z,267
2023-05-21T18:17:04.886Z,267
2023-05-21T18:19:17.113Z,267
2023-05-21T18:21:39.550Z,267
2023-05-21T18:23:47.307Z,266
2023-05-21T18:25:57.017Z,267
2023-05-21T18:28:06.517Z,267
2023-05-21T18:30:14.418Z,267
2023-05-21T18:32:23.245Z,267
2023-05-21T18:34:33.537Z,267
2023-05-21T18:36:46.023Z,268
2023-05-21T18:39:09.652Z,268
2023-05-21T18:41:18.163Z,268
2023-05-21T18:43:29.249Z,267
2023-05-21T18:45:39.564Z,267
2023-05-21T18:47:49.069Z,267
2023-05-21T18:49:57.669Z,267
2023-05-21T18:52:07.026Z,267
2023-05-21T18:54:14.999Z,266
2023-05-21T18:56:23.900Z,267
2023-05-21T18:58:32.210Z,267
2023-05-21T19:00:42.945Z,267
2023-05-21T19:02:51.412Z,267
2023-05-21T19:04:59.802Z,267
2023-05-21T19:07:08.615Z,267
2023-05-21T19:09:18.925Z,267
2023-05-21T19:11:29.418Z,267
2023-05-21T19:13:38.106Z,267
2023-05-21T19:15:47.417Z,267
2023-05-21T19:17:56.715Z,267
2023-05-21T19:20:05.268Z,267
2023-05-21T19:22:13.585Z,267
2023-05-21T19:24:22.392Z,266
2023-05-21T19:26:33.450Z,266
2023-05-21T19:28:41.844Z,266
2023-05-21T19:30:52.250Z,266
2023-05-21T19:33:00.424Z,266
2023-05-21T19:35:10.168Z,266
2023-05-21T19:37:19.081Z,266
2023-05-21T19:39:30.901Z,266
2023-05-21T19:41:40.156Z,266
2023-05-21T19:43:49.603Z,266
2023-05-21T19:45:59.293Z,266
2023-05-21T19:48:08.784Z,267
2023-05-21T19:50:18.500Z,265
2023-05-21T19:52:26.597Z,266
2023-05-21T19:54:35.815Z,265
2023-05-21T19:56:44.181Z,262
2023-05-21T19:58:51.799Z,261
2023-05-21T20:00:59.959Z,262
2023-05-21T20:03:08.424Z,262
2023-05-21T20:05:20.544Z,262
2023-05-21T20:07:29.069Z,264
2023-05-21T20:09:37.219Z,264
2023-05-21T20:11:45.311Z,264
2023-05-21T20:13:55.421Z,265
2023-05-21T20:16:03.468Z,266
2023-05-21T20:18:12.290Z,265
2023-05-21T20:20:19.931Z,265
2023-05-21T20:22:28.969Z,265
2023-05-21T20:24:37.562Z,265
2023-05-21T20:26:47.155Z,265
2023-05-21T20:28:55.447Z,265
2023-05-21T20:31:03.294Z,266
2023-05-21T20:33:12.254Z,266
2023-05-21T20:35:23.792Z,266
2023-05-21T20:37:32.433Z,266
2023-05-21T20:39:40.309Z,266
2023-05-21T20:41:49.051Z,266
2023-05-21T20:43:57.752Z,267
2023-05-21T20:46:06.000Z,267
2023-05-21T20:48:15.431Z,267
2023-05-21T20:50:23.848Z,266
2023-05-21T20:52:33.056Z,266
2023-05-21T20:54:40.670Z,266
2023-05-21T20:56:50.846Z,265
2023-05-21T20:58:59.095Z,266
2023-05-21T21:01:07.263Z,266
2023-05-21T21:03:15.455Z,266
2023-05-21T21:05:23.127Z,266
2023-05-21T21:07:31.243Z,266
2023-05-21T21:09:41.428Z,266
2023-05-21T21:11:49.335Z,266
2023-05-21T21:13:58.913Z,266
2023-05-21T21:16:07.897Z,266
2023-05-21T21:18:16.307Z,266
2023-05-21T21:20:27.328Z,266
2023-05-21T21:22:35.442Z,266
2023-05-21T21:24:44.031Z,266
2023-05-21T21:26:56.081Z,265
2023-05-21T21:29:04.588Z,265
2023-05-21T21:31:13.652Z,267
2023-05-21T21:33:25.188Z,266
2023-05-21T21:35:33.004Z,266
2023-05-21T21:37:41.221Z,266
2023-05-21T21:39:49.527Z,267
2023-05-21T21:41:56.464Z,266
2023-05-21T21:44:03.849Z,267
2023-05-21T21:46:13.349Z,266
2023-05-21T21:48:21.170Z,266
2023-05-21T21:50:29.771Z,266
2023-05-21T21:52:37.898Z,266
2023-05-21T21:54:46.785Z,265
2023-05-21T21:56:54.307Z,265
2023-05-21T21:59:02.472Z,265
2023-05-21T22:01:10.954Z,265
2023-05-21T22:03:20.572Z,265
2023-05-21T22:05:28.037Z,265
2023-05-21T22:07:35.108Z,265
2023-05-21T22:09:41.944Z,265
2023-05-21T22:11:49.062Z,265
2023-05-21T22:13:56.224Z,264
2023-05-21T22:16:02.978Z,262
2023-05-21T22:18:10.688Z,264
2023-05-21T22:20:17.750Z,265
2023-05-21T22:22:27.909Z,267
2023-05-21T22:24:37.035Z,267
2023-05-21T22:26:43.940Z,267
2023-05-21T22:28:51.093Z,267
2023-05-21T22:30:58.208Z,267
2023-05-21T22:33:05.633Z,267
2023-05-21T22:35:12.478Z,266
2023-05-21T22:37:21.147Z,267
2023-05-21T22:39:27.757Z,267
2023-05-21T22:41:35.571Z,267
2023-05-21T22:43:42.655Z,267
2023-05-21T22:45:49.235Z,267
2023-05-21T22:47:56.850Z,266
2023-05-21T22:50:04.404Z,267
2023-05-21T22:52:14.324Z,267
2023-05-21T22:54:21.688Z,267
2023-05-21T22:56:29.020Z,267
2023-05-21T22:58:36.898Z,267
2023-05-21T23:00:44.299Z,267
2023-05-21T23:02:57.619Z,267
2023-05-21T23:05:05.056Z,267
2023-05-21T23:07:12.456Z,267
2023-05-21T23:09:20.982Z,267
2023-05-21T23:11:27.700Z,267
2023-05-21T23:13:34.796Z,267
2023-05-21T23:15:42.576Z,267
2023-05-21T23:17:49.678Z,267
2023-05-21T23:19:56.768Z,267
2023-05-21T23:22:04.188Z,267
2023-05-21T23:24:10.634Z,266
2023-05-21T23:26:18.923Z,267
2023-05-21T23:28:26.314Z,268
2023-05-21T23:30:33.420Z,267
2023-05-21T23:32:40.507Z,267
2023-05-21T23:34:48.437Z,267
2023-05-21T23:36:56.213Z,267
2023-05-21T23:39:05.970Z,267
2023-05-21T23:41:13.805Z,267
2023-05-21T23:43:21.435Z,267
2023-05-21T23:45:30.646Z,267
2023-05-21T23:47:37.659Z,268
2023-05-21T23:49:44.889Z,268
2023-05-21T23:51:52.208Z,267
2023-05-21T23:53:58.817Z,267
2023-05-21T23:56:05.524Z,267
2023-05-21T23:58:13.469Z,268
